Time;durP1;ratioP1;P1;durP2;ratioP2;P2;SDS_P1;SDS_P2;PMS_P1;PMS_P2;Temp;Humidity;BMP_temperature;BMP_pressure;BME280_temperature;BME280_humidity;BME280_pressure;Samples;Min_cycle;Max_cycle;Signal;HPM_P1;HPM_P2
2022/02/16 00:02:23;;;;;;;26.20;15.48;;;6.30;99.90;;;;;;5049594;28;20111;-60
2022/02/16 00:04:48;;;;;;;26.45;16.25;;;6.30;99.90;;;;;;5050684;28;20116;-57
2022/02/16 00:07:14;;;;;;;22.23;14.02;;;6.30;99.90;;;;;;5044227;28;20069;-53
2022/02/16 00:09:39;;;;;;;24.15;16.30;;;6.40;99.90;;;;;;5047901;28;20028;-55
2022/02/16 00:12:08;;;;;;;26.42;15.68;;;6.40;99.90;;;;;;5049788;28;20029;-57
2022/02/16 00:14:34;;;;;;;25.30;16.13;;;6.40;99.90;;;;;;5050411;28;20590;-57
2022/02/16 00:17:00;;;;;;;22.98;13.95;;;6.40;99.90;;;;;;5048814;28;20115;-57
2022/02/16 00:19:26;;;;;;;22.13;12.98;;;6.40;99.90;;;;;;5050597;28;20035;-54
2022/02/16 00:21:52;;;;;;;21.55;12.18;;;6.40;99.90;;;;;;5047494;28;20401;-55
2022/02/16 00:24:18;;;;;;;20.10;10.38;;;6.40;99.90;;;;;;5044429;28;20562;-57
2022/02/16 00:26:44;;;;;;;17.88;10.38;;;6.40;99.90;;;;;;5047592;28;20120;-55
2022/02/16 00:29:13;;;;;;;13.75;9.60;;;6.40;99.90;;;;;;5032144;28;20021;-57
2022/02/16 00:31:40;;;;;;;13.57;9.05;;;6.40;99.90;;;;;;5049848;28;20017;-56
2022/02/16 00:34:06;;;;;;;15.75;9.00;;;6.40;99.90;;;;;;5049923;28;20064;-57
2022/02/16 00:36:32;;;;;;;12.95;8.25;;;6.50;99.90;;;;;;5048403;28;20029;-53
2022/02/16 00:38:58;;;;;;;12.38;7.95;;;6.40;99.90;;;;;;5043400;28;20033;-57
2022/02/16 00:41:24;;;;;;;11.38;8.07;;;6.50;99.90;;;;;;5049219;28;20033;-55
2022/02/16 00:43:49;;;;;;;12.40;8.32;;;6.50;99.90;;;;;;5049770;28;20536;-56
2022/02/16 00:46:15;;;;;;;14.77;8.88;;;6.50;99.90;;;;;;5049475;28;20041;-56
2022/02/16 00:48:41;;;;;;;14.07;7.75;;;6.50;99.90;;;;;;5049103;28;20044;-57
2022/02/16 00:51:07;;;;;;;16.48;8.98;;;6.50;99.90;;;;;;5049784;28;20489;-53
2022/02/16 00:53:33;;;;;;;18.60;10.32;;;6.50;99.90;;;;;;5040511;28;20029;-57
2022/02/16 00:55:59;;;;;;;16.63;9.77;;;6.50;99.90;;;;;;5049025;28;20025;-57
2022/02/16 00:58:24;;;;;;;18.65;10.25;;;6.50;99.90;;;;;;5049346;28;20033;-57
2022/02/16 01:00:51;;;;;;;19.45;10.75;;;6.50;99.90;;;;;;5049793;28;20124;-57
2022/02/16 01:03:17;;;;;;;17.35;10.45;;;6.50;99.90;;;;;;5043109;28;20091;-57
2022/02/16 01:05:42;;;;;;;18.10;9.77;;;6.50;99.90;;;;;;5046560;28;20127;-56
2022/02/16 01:08:09;;;;;;;17.60;10.43;;;6.50;99.90;;;;;;5044321;28;20041;-57
2022/02/16 01:10:36;;;;;;;15.35;9.95;;;6.40;99.90;;;;;;5045951;28;20028;-58
2022/02/16 01:13:02;;;;;;;18.80;10.77;;;6.50;99.90;;;;;;5044657;28;20034;-57
2022/02/16 01:15:27;;;;;;;20.88;11.55;;;6.50;99.90;;;;;;5044222;28;20031;-58
2022/02/16 01:17:53;;;;;;;19.20;11.77;;;6.50;99.90;;;;;;5048594;28;20116;-56
2022/02/16 01:20:20;;;;;;;19.88;11.73;;;6.50;99.90;;;;;;5049629;28;20435;-58
2022/02/16 01:22:45;;;;;;;23.27;12.63;;;6.50;99.90;;;;;;5048473;28;20036;-57
2022/02/16 01:25:11;;;;;;;18.85;12.13;;;6.50;99.90;;;;;;5048477;28;20032;-57
2022/02/16 01:27:37;;;;;;;20.45;12.25;;;6.50;99.90;;;;;;5048106;28;20056;-56
2022/02/16 01:30:04;;;;;;;17.73;11.35;;;6.50;99.90;;;;;;5040991;28;20091;-57
2022/02/16 01:32:29;;;;;;;18.38;11.68;;;6.50;99.90;;;;;;5048249;28;20030;-57
2022/02/16 01:34:55;;;;;;;16.98;10.15;;;6.60;99.90;;;;;;5040293;28;20040;-58
2022/02/16 01:37:20;;;;;;;16.65;10.55;;;6.50;99.90;;;;;;5048068;28;20041;-55
2022/02/16 01:39:46;;;;;;;17.27;10.35;;;6.50;99.90;;;;;;5040924;28;20032;-53
2022/02/16 01:42:17;;;;;;;15.15;9.77;;;6.50;99.90;;;;;;5049112;28;20025;-57
2022/02/16 01:44:43;;;;;;;19.67;10.07;;;6.60;99.90;;;;;;5048726;28;20041;-55
2022/02/16 01:47:09;;;;;;;14.57;9.63;;;6.60;99.90;;;;;;5048563;28;20105;-56
2022/02/16 01:49:35;;;;;;;13.95;9.43;;;6.60;99.90;;;;;;5029881;28;20087;-57
2022/02/16 01:52:02;;;;;;;15.45;8.93;;;6.50;99.90;;;;;;5049371;28;20048;-57
2022/02/16 01:54:27;;;;;;;15.77;9.23;;;6.60;99.90;;;;;;5040371;28;20478;-56
2022/02/16 01:56:54;;;;;;;17.30;10.02;;;6.60;99.90;;;;;;5048163;28;20029;-55
2022/02/16 01:59:23;;;;;;;18.13;10.07;;;6.60;99.90;;;;;;5040040;28;20506;-56
2022/02/16 02:01:50;;;;;;;13.52;9.05;;;6.60;99.90;;;;;;5049608;28;20173;-54
2022/02/16 02:04:17;;;;;;;14.70;9.48;;;6.60;99.90;;;;;;5043145;28;20030;-55
2022/02/16 02:06:43;;;;;;;12.45;8.25;;;6.60;99.90;;;;;;5044914;28;20040;-55
2022/02/16 02:09:10;;;;;;;14.60;9.15;;;6.50;99.90;;;;;;5048876;28;20045;-55
2022/02/16 02:11:36;;;;;;;15.55;9.73;;;6.60;99.90;;;;;;5048128;28;20028;-56
2022/02/16 02:14:04;;;;;;;16.95;9.93;;;6.60;99.90;;;;;;5043733;28;20112;-56
2022/02/16 02:16:30;;;;;;;17.52;11.07;;;6.60;99.90;;;;;;5051442;28;20056;-56
2022/02/16 02:18:56;;;;;;;18.65;10.98;;;6.60;99.90;;;;;;5053072;28;20704;-56
2022/02/16 02:21:25;;;;;;;16.85;10.75;;;6.60;99.90;;;;;;5051805;28;20029;-55
2022/02/16 02:23:52;;;;;;;18.20;11.25;;;6.60;99.90;;;;;;5052636;28;20490;-56
2022/02/16 02:26:19;;;;;;;19.42;12.23;;;6.60;99.90;;;;;;5045696;28;20079;-60
2022/02/16 02:28:46;;;;;;;20.17;13.30;;;6.70;99.90;;;;;;5050096;28;20459;-57
2022/02/16 02:31:12;;;;;;;23.38;13.32;;;6.70;99.90;;;;;;5046903;28;20108;-55
2022/02/16 02:33:38;;;;;;;23.48;14.85;;;6.70;99.90;;;;;;5049378;28;20495;-58
2022/02/16 02:36:05;;;;;;;24.95;15.68;;;6.70;99.90;;;;;;5051313;28;20036;-55
2022/02/16 02:38:34;;;;;;;27.10;16.42;;;6.70;99.90;;;;;;5044906;28;20136;-58
2022/02/16 02:41:03;;;;;;;29.58;17.90;;;6.70;99.90;;;;;;5045487;28;20063;-59
2022/02/16 02:43:30;;;;;;;28.00;17.67;;;6.80;99.90;;;;;;5050731;28;20040;-57
2022/02/16 02:45:56;;;;;;;29.35;18.25;;;6.80;99.90;;;;;;5047815;28;20099;-54
2022/02/16 02:48:23;;;;;;;30.38;18.83;;;6.80;99.90;;;;;;5045952;28;20037;-58
2022/02/16 02:50:54;;;;;;;31.63;18.67;;;6.80;99.90;;;;;;5043683;28;20083;-57
2022/02/16 02:53:20;;;;;;;29.02;18.73;;;6.80;99.90;;;;;;5051388;28;20136;-57
2022/02/16 02:55:47;;;;;;;35.30;20.55;;;6.80;99.90;;;;;;5050322;28;20029;-57
2022/02/16 02:58:12;;;;;;;35.40;20.15;;;6.80;99.90;;;;;;5052023;28;20473;-57
2022/02/16 03:00:38;;;;;;;32.78;21.55;;;6.80;99.90;;;;;;5030468;28;20120;-58
2022/02/16 03:03:04;;;;;;;31.63;20.38;;;6.80;99.90;;;;;;5052186;28;20431;-54
2022/02/16 03:05:30;;;;;;;39.10;21.48;;;6.90;99.90;;;;;;5042002;28;20017;-56
2022/02/16 03:07:56;;;;;;;35.60;21.77;;;6.90;99.90;;;;;;5052084;28;20485;-58
2022/02/16 03:10:22;;;;;;;33.72;21.00;;;6.90;99.90;;;;;;5032557;28;20091;-58
2022/02/16 03:12:48;;;;;;;32.67;20.42;;;6.90;99.90;;;;;;5052022;28;20041;-54
2022/02/16 03:15:13;;;;;;;31.55;20.65;;;6.90;99.90;;;;;;5041839;28;20036;-55
2022/02/16 03:17:39;;;;;;;28.77;19.65;;;6.90;99.90;;;;;;5051730;28;20025;-57
2022/02/16 03:20:07;;;;;;;28.88;19.50;;;7.00;99.90;;;;;;5050533;28;20127;-56
2022/02/16 03:22:34;;;;;;;30.42;20.85;;;7.00;99.90;;;;;;5051478;28;20064;-58
2022/02/16 03:25:01;;;;;;;31.77;20.05;;;7.00;99.90;;;;;;5049903;28;20360;-55
2022/02/16 03:27:27;;;;;;;30.38;20.50;;;7.00;99.90;;;;;;5051032;28;20040;-54
2022/02/16 03:29:54;;;;;;;32.38;20.60;;;7.00;99.90;;;;;;5050571;28;20563;-55
2022/02/16 03:32:20;;;;;;;31.15;21.88;;;7.00;99.90;;;;;;5051470;28;20115;-57
2022/02/16 03:34:46;;;;;;;34.50;20.92;;;7.00;99.90;;;;;;5048684;28;20156;-56
2022/02/16 03:37:11;;;;;;;31.67;21.48;;;7.00;99.90;;;;;;5043720;28;20069;-59
2022/02/16 03:39:37;;;;;;;31.65;21.15;;;7.10;99.90;;;;;;5050612;28;20032;-58
2022/02/16 03:42:03;;;;;;;30.20;21.15;;;7.10;99.90;;;;;;5051221;28;20502;-57
2022/02/16 03:44:28;;;;;;;29.83;20.10;;;7.10;99.90;;;;;;5050452;28;20037;-53
2022/02/16 03:46:55;;;;;;;35.28;20.30;;;7.10;99.90;;;;;;5050706;28;20112;-55
2022/02/16 03:49:24;;;;;;;29.67;20.55;;;7.10;99.90;;;;;;5050360;28;20105;-54
2022/02/16 03:51:51;;;;;;;27.50;18.80;;;7.20;99.90;;;;;;5051098;28;20104;-57
2022/02/16 03:54:16;;;;;;;31.95;19.63;;;7.20;99.90;;;;;;5032259;28;20024;-57
2022/02/16 03:56:43;;;;;;;32.05;19.90;;;7.20;99.90;;;;;;5015910;28;20036;-56
2022/02/16 03:59:08;;;;;;;28.23;19.27;;;7.20;99.90;;;;;;5050382;28;20040;-57
2022/02/16 04:01:34;;;;;;;29.05;19.95;;;7.10;99.90;;;;;;5050704;28;20119;-57
2022/02/16 04:04:00;;;;;;;32.70;19.17;;;7.20;99.90;;;;;;5049524;28;20067;-56
2022/02/16 04:06:25;;;;;;;31.80;19.90;;;7.20;99.90;;;;;;5049218;28;20041;-56
2022/02/16 04:08:51;;;;;;;31.40;19.70;;;7.20;99.90;;;;;;5050746;28;20032;-55
2022/02/16 04:11:20;;;;;;;23.60;16.85;;;7.20;99.90;;;;;;5041518;28;20102;-55
2022/02/16 04:13:47;;;;;;;30.00;18.95;;;7.20;99.90;;;;;;5051034;28;20116;-55
2022/02/16 04:16:13;;;;;;;25.23;17.02;;;7.30;99.90;;;;;;5041052;28;20100;-56
2022/02/16 04:18:39;;;;;;;31.33;18.52;;;7.30;99.90;;;;;;5050475;28;20095;-57
2022/02/16 04:21:05;;;;;;;28.55;18.73;;;7.30;99.90;;;;;;5041454;28;20037;-57
2022/02/16 04:23:31;;;;;;;30.83;18.48;;;7.30;99.90;;;;;;5050724;28;20029;-57
2022/02/16 04:25:57;;;;;;;25.95;17.15;;;7.30;99.90;;;;;;5040721;28;20056;-57
2022/02/16 04:28:23;;;;;;;27.35;16.48;;;7.20;99.90;;;;;;5042555;28;20546;-57
2022/02/16 04:30:49;;;;;;;27.67;16.20;;;7.20;99.90;;;;;;5048079;28;20435;-55
2022/02/16 04:33:15;;;;;;;22.70;15.40;;;7.20;99.90;;;;;;5050382;28;20024;-57
2022/02/16 04:35:41;;;;;;;22.25;14.48;;;7.20;99.90;;;;;;5048105;28;20715;-53
2022/02/16 04:38:08;;;;;;;20.05;13.38;;;7.20;99.90;;;;;;5051138;28;20131;-57
2022/02/16 04:40:34;;;;;;;21.92;13.25;;;7.20;99.90;;;;;;5049398;28;20033;-55
2022/02/16 04:43:03;;;;;;;18.90;12.13;;;7.20;99.90;;;;;;5042008;28;20065;-57
2022/02/16 04:45:30;;;;;;;22.33;13.55;;;7.20;99.90;;;;;;5048083;28;20036;-57
2022/02/16 04:47:57;;;;;;;22.05;12.68;;;7.10;99.90;;;;;;5041724;28;20374;-55
2022/02/16 04:50:23;;;;;;;22.23;13.85;;;7.10;99.90;;;;;;5049475;28;20033;-55
2022/02/16 04:52:54;;;;;;;21.17;12.93;;;7.10;99.90;;;;;;5042472;28;20127;-53
2022/02/16 04:55:19;;;;;;;22.17;13.75;;;7.10;99.90;;;;;;5048728;28;20052;-58
2022/02/16 04:57:45;;;;;;;20.95;13.77;;;7.10;99.90;;;;;;5041561;28;20143;-54
2022/02/16 05:00:11;;;;;;;22.65;14.43;;;7.10;99.90;;;;;;5049827;28;20467;-57
2022/02/16 05:02:37;;;;;;;28.02;15.00;;;7.10;99.90;;;;;;5031084;28;20048;-56
2022/02/16 05:05:02;;;;;;;24.17;15.15;;;7.20;99.90;;;;;;5049756;28;20033;-54
2022/02/16 05:07:29;;;;;;;24.70;16.55;;;7.20;99.90;;;;;;5040290;28;20391;-56
2022/02/16 05:09:54;;;;;;;27.10;15.98;;;7.20;99.90;;;;;;5049401;28;20065;-56
2022/02/16 05:12:20;;;;;;;29.20;16.98;;;7.20;99.90;;;;;;5040330;28;20028;-58
2022/02/16 05:14:45;;;;;;;42.53;18.55;;;7.20;99.90;;;;;;5049199;28;20592;-55
2022/02/16 05:17:11;;;;;;;27.23;16.50;;;7.20;99.90;;;;;;5039367;28;20021;-55
2022/02/16 05:19:37;;;;;;;31.17;17.70;;;7.20;99.90;;;;;;5049611;28;20068;-53
2022/02/16 05:22:02;;;;;;;26.02;16.88;;;7.20;99.90;;;;;;5048307;28;20112;-57
2022/02/16 05:24:28;;;;;;;25.65;15.10;;;7.20;99.90;;;;;;5049134;28;20029;-55
2022/02/16 05:26:54;;;;;;;26.85;15.30;;;7.30;99.90;;;;;;5045104;28;20483;-55
2022/02/16 05:29:20;;;;;;;24.77;15.10;;;7.20;99.90;;;;;;5043561;28;20025;-55
2022/02/16 05:31:46;;;;;;;22.98;14.18;;;7.20;99.90;;;;;;5048385;28;20317;-57
2022/02/16 05:34:11;;;;;;;21.98;14.65;;;7.20;99.90;;;;;;5048963;28;20035;-57
2022/02/16 05:36:37;;;;;;;24.35;14.98;;;7.20;99.90;;;;;;5047862;28;20068;-54
2022/02/16 05:39:04;;;;;;;21.45;14.15;;;7.20;99.90;;;;;;5045254;28;20530;-54
2022/02/16 05:41:30;;;;;;;20.10;13.13;;;7.20;99.90;;;;;;5048471;28;20478;-46
2022/02/16 05:43:56;;;;;;;21.48;14.02;;;7.30;99.90;;;;;;5048561;28;20029;-46
2022/02/16 05:46:22;;;;;;;24.85;13.35;;;7.30;99.90;;;;;;5031630;28;20357;-50
2022/02/16 05:48:48;;;;;;;22.25;13.18;;;7.30;99.90;;;;;;5039304;28;20025;-55
2022/02/16 05:51:14;;;;;;;19.55;13.20;;;7.20;99.90;;;;;;5049438;28;20165;-55
2022/02/16 05:53:40;;;;;;;18.58;12.20;;;7.20;99.90;;;;;;5026484;28;20107;-51
2022/02/16 05:56:05;;;;;;;21.77;11.75;;;7.20;99.90;;;;;;5043582;28;20025;-54
2022/02/16 05:58:31;;;;;;;17.08;11.32;;;7.20;99.90;;;;;;5042885;28;20040;-55
2022/02/16 06:00:57;;;;;;;16.55;11.32;;;7.20;99.90;;;;;;5038530;28;20195;-54
2022/02/16 06:03:23;;;;;;;17.67;11.43;;;7.10;99.90;;;;;;5026696;28;20412;-57
2022/02/16 06:05:49;;;;;;;17.67;10.75;;;7.10;99.90;;;;;;5046681;28;20021;-54
2022/02/16 06:08:15;;;;;;;12.15;8.68;;;7.10;99.90;;;;;;5047036;28;20045;-57
2022/02/16 06:10:41;;;;;;;14.02;9.63;;;7.10;99.90;;;;;;5039603;28;20114;-55
2022/02/16 06:13:06;;;;;;;13.02;9.35;;;7.10;99.90;;;;;;5047500;28;20060;-57
2022/02/16 06:15:32;;;;;;;13.73;8.57;;;7.10;99.90;;;;;;5036251;28;20028;-55
2022/02/16 06:17:58;;;;;;;12.00;8.18;;;7.10;99.90;;;;;;5039920;28;20142;-55
2022/02/16 06:20:23;;;;;;;12.93;8.75;;;7.10;99.90;;;;;;5047734;28;20064;-58
2022/02/16 06:22:52;;;;;;;12.35;8.73;;;7.10;99.90;;;;;;5045932;28;20041;-56
2022/02/16 06:25:17;;;;;;;14.35;9.18;;;7.20;99.90;;;;;;5041282;28;20033;-57
2022/02/16 06:27:43;;;;;;;14.10;8.95;;;7.10;99.90;;;;;;5047190;28;20029;-51
2022/02/16 06:30:09;;;;;;;11.45;8.32;;;7.10;99.90;;;;;;5029724;28;20540;-51
2022/02/16 06:32:35;;;;;;;12.85;8.90;;;7.10;99.90;;;;;;5044098;28;20060;-55
2022/02/16 06:35:01;;;;;;;12.38;8.88;;;7.20;99.90;;;;;;5026921;28;20021;-52
2022/02/16 06:37:27;;;;;;;10.65;7.63;;;7.20;99.90;;;;;;5040891;28;20039;-54
2022/02/16 06:39:53;;;;;;;16.98;8.93;;;7.20;99.90;;;;;;5047015;28;20108;-53
2022/02/16 06:42:19;;;;;;;12.98;9.15;;;7.20;99.90;;;;;;5046808;28;20040;-52
2022/02/16 06:44:44;;;;;;;14.10;9.13;;;7.20;99.90;;;;;;5045929;28;20030;-53
2022/02/16 06:47:10;;;;;;;12.93;8.20;;;7.20;99.90;;;;;;5043009;28;20033;-55
2022/02/16 06:49:36;;;;;;;11.70;8.25;;;7.20;99.90;;;;;;5043548;28;20051;-50
2022/02/16 06:52:03;;;;;;;12.15;8.13;;;7.30;99.90;;;;;;5047188;28;20035;-60
2022/02/16 06:54:28;;;;;;;11.65;8.27;;;7.20;99.90;;;;;;5046160;28;20029;-60
2022/02/16 06:56:54;;;;;;;12.25;8.80;;;7.20;99.90;;;;;;5045917;28;20032;-57
2022/02/16 06:59:20;;;;;;;10.98;7.95;;;7.20;99.90;;;;;;5048283;28;20072;-55
2022/02/16 07:01:45;;;;;;;13.02;8.80;;;7.20;99.90;;;;;;5050573;28;20045;-52
2022/02/16 07:04:11;;;;;;;12.45;7.65;;;7.20;99.90;;;;;;5049606;28;20041;-55
2022/02/16 07:06:37;;;;;;;12.98;6.72;;;7.20;99.90;;;;;;5048066;28;20026;-53
2022/02/16 07:09:02;;;;;;;9.68;7.30;;;7.20;99.90;;;;;;5047267;28;20402;-56
2022/02/16 07:11:30;;;;;;;11.77;8.10;;;7.20;99.90;;;;;;5043591;28;20033;-55
2022/02/16 07:13:56;;;;;;;13.55;8.40;;;7.20;99.90;;;;;;5046511;28;20114;-55
2022/02/16 07:16:21;;;;;;;11.20;7.78;;;7.20;99.90;;;;;;5042499;28;20059;-63
2022/02/16 07:18:47;;;;;;;15.10;8.90;;;7.20;99.90;;;;;;5032961;28;20025;-58
2022/02/16 07:21:13;;;;;;;10.82;7.30;;;7.20;99.90;;;;;;5050545;28;20025;-56
2022/02/16 07:23:39;;;;;;;13.45;8.38;;;7.30;99.90;;;;;;5049833;28;20105;-62
2022/02/16 07:26:09;;;;;;;12.48;8.30;;;7.30;99.90;;;;;;5032550;28;20803;-57
2022/02/16 07:28:35;;;;;;;11.02;8.07;;;7.30;99.90;;;;;;5050433;28;20415;-56
2022/02/16 07:31:01;;;;;;;10.45;7.45;;;7.30;99.90;;;;;;5039671;28;20462;-54
2022/02/16 07:33:26;;;;;;;10.05;7.55;;;7.30;99.90;;;;;;5044076;28;20116;-51
2022/02/16 07:35:52;;;;;;;12.95;7.35;;;7.40;99.90;;;;;;5041808;28;20151;-53
2022/02/16 07:38:18;;;;;;;11.95;7.97;;;7.50;99.90;;;;;;5016212;28;20025;-46
2022/02/16 07:40:43;;;;;;;12.48;7.95;;;7.50;99.90;;;;;;5050965;28;20025;-52
2022/02/16 07:43:09;;;;;;;14.90;8.23;;;7.50;99.90;;;;;;5048741;28;20494;-53
2022/02/16 07:45:35;;;;;;;11.27;7.75;;;7.60;99.90;;;;;;5050558;28;20078;-52
2022/02/16 07:48:01;;;;;;;9.70;6.88;;;7.70;99.90;;;;;;5050376;28;20396;-52
2022/02/16 07:50:30;;;;;;;11.15;6.82;;;7.80;99.90;;;;;;5042100;28;20454;-48
2022/02/16 07:52:59;;;;;;;11.32;7.25;;;7.90;99.90;;;;;;5049655;28;20025;-51
2022/02/16 07:55:28;;;;;;;9.95;7.00;;;8.00;99.90;;;;;;5049943;28;20063;-48
2022/02/16 07:57:58;;;;;;;9.85;7.10;;;8.60;99.90;;;;;;5050145;28;20551;-53
2022/02/16 08:00:25;;;;;;;8.73;6.47;;;8.20;99.90;;;;;;5045940;28;20025;-60
2022/02/16 08:02:50;;;;;;;9.27;6.53;;;8.00;99.90;;;;;;5046494;28;20028;-61
2022/02/16 08:05:16;;;;;;;8.43;6.60;;;7.90;99.90;;;;;;5025110;28;20021;-57
2022/02/16 08:07:42;;;;;;;7.88;6.55;;;7.80;99.90;;;;;;5049669;28;20052;-58
2022/02/16 08:10:08;;;;;;;7.72;5.93;;;7.70;99.90;;;;;;5048904;28;20033;-60
2022/02/16 08:12:46;;;;;;;8.63;7.15;;;7.80;99.90;;;;;;5048443;28;20467;-54
2022/02/16 08:15:12;;;;;;;9.68;7.22;;;7.70;99.90;;;;;;5042764;28;20461;-57
2022/02/16 08:17:38;;;;;;;10.50;6.85;;;7.80;99.90;;;;;;5033970;28;20335;-56
2022/02/16 08:20:09;;;;;;;9.00;6.93;;;7.80;99.90;;;;;;5049159;28;20093;-59
2022/02/16 08:22:36;;;;;;;9.50;7.40;;;7.70;99.90;;;;;;5050128;28;20041;-60
2022/02/16 08:25:02;;;;;;;9.73;7.55;;;7.80;99.90;;;;;;5048700;28;20044;-56
2022/02/16 08:27:28;;;;;;;10.85;6.93;;;7.80;99.90;;;;;;5041667;28;20401;-60
2022/02/16 08:29:54;;;;;;;11.77;6.53;;;7.80;99.90;;;;;;5048445;28;20039;-59
2022/02/16 08:32:20;;;;;;;9.68;6.65;;;7.80;99.90;;;;;;5035503;28;20051;-61
2022/02/16 08:34:46;;;;;;;8.70;6.30;;;7.80;99.90;;;;;;5040705;28;20037;-62
2022/02/16 08:37:11;;;;;;;10.60;7.40;;;7.80;99.90;;;;;;5049453;28;20040;-60
2022/02/16 08:39:37;;;;;;;8.40;6.55;;;7.80;99.90;;;;;;5048913;28;20115;-60
2022/02/16 08:42:03;;;;;;;9.05;6.68;;;7.80;99.90;;;;;;5049948;28;20033;-59
2022/02/16 08:44:30;;;;;;;9.27;5.93;;;7.80;99.90;;;;;;5049652;28;20540;-54
2022/02/16 08:46:56;;;;;;;8.32;5.50;;;7.90;99.90;;;;;;5049324;28;20077;-56
2022/02/16 08:49:22;;;;;;;8.35;5.80;;;7.90;99.90;;;;;;5049789;28;20106;-60
2022/02/16 08:51:48;;;;;;;6.10;4.72;;;7.90;99.90;;;;;;5048168;28;20461;-58
2022/02/16 08:54:13;;;;;;;6.03;4.60;;;7.90;99.90;;;;;;5050257;28;20021;-53
2022/02/16 08:56:39;;;;;;;7.15;5.20;;;7.90;99.90;;;;;;5047797;28;20036;-56
2022/02/16 08:59:05;;;;;;;6.07;4.47;;;7.90;99.90;;;;;;5044995;28;20508;-57
2022/02/16 09:01:32;;;;;;;7.28;4.10;;;7.90;99.90;;;;;;5046018;28;20023;-59
2022/02/16 09:04:02;;;;;;;6.65;4.88;;;8.00;99.90;;;;;;5027789;28;20056;-59
2022/02/16 09:06:29;;;;;;;8.68;4.93;;;8.00;99.90;;;;;;5044262;28;20032;-56
2022/02/16 09:08:56;;;;;;;5.53;3.97;;;7.90;99.90;;;;;;5048511;28;20025;-55
2022/02/16 09:11:21;;;;;;;6.03;4.30;;;7.90;99.90;;;;;;5049352;28;20071;-61
2022/02/16 09:13:47;;;;;;;5.57;3.35;;;8.00;99.90;;;;;;5048703;28;20041;-57
2022/02/16 09:16:13;;;;;;;7.80;3.85;;;8.00;99.90;;;;;;5049196;28;20017;-61
2022/02/16 09:18:38;;;;;;;7.28;3.90;;;8.00;99.90;;;;;;5048231;28;20036;-60
2022/02/16 09:21:07;;;;;;;5.35;3.63;;;8.10;99.90;;;;;;5031131;28;20033;-60
2022/02/16 09:23:38;;;;;;;3.63;3.08;;;8.10;99.90;;;;;;5048359;28;20021;-62
2022/02/16 09:26:05;;;;;;;4.18;3.40;;;8.10;99.90;;;;;;5039850;28;20113;-61
2022/02/16 09:28:32;;;;;;;4.70;3.42;;;8.00;99.90;;;;;;5049158;28;20029;-53
2022/02/16 09:30:59;;;;;;;2.92;2.20;;;8.10;99.90;;;;;;5048162;28;20033;-56
2022/02/16 09:33:27;;;;;;;2.83;2.53;;;8.10;99.90;;;;;;5030884;28;20094;-56
2022/02/16 09:35:53;;;;;;;3.58;2.53;;;8.10;99.90;;;;;;5047457;28;20037;-58
2022/02/16 09:38:19;;;;;;;4.13;2.83;;;8.10;99.90;;;;;;5049167;28;20478;-57
2022/02/16 09:40:46;;;;;;;2.58;1.77;;;8.10;99.90;;;;;;5048150;28;20033;-59
2022/02/16 09:43:17;;;;;;;2.78;2.00;;;8.10;99.90;;;;;;5042151;28;20028;-59
2022/02/16 09:45:43;;;;;;;2.75;2.20;;;8.10;99.90;;;;;;5048597;28;20029;-57
2022/02/16 09:48:09;;;;;;;2.13;1.92;;;8.10;99.90;;;;;;5048548;28;20506;-58
2022/02/16 09:50:35;;;;;;;1.98;1.55;;;8.10;99.90;;;;;;5049082;28;20033;-59
2022/02/16 09:53:01;;;;;;;2.47;2.10;;;8.10;99.90;;;;;;5043083;28;20032;-58
2022/02/16 09:55:27;;;;;;;2.20;1.60;;;8.10;99.90;;;;;;5048134;28;20490;-57
2022/02/16 09:57:53;;;;;;;4.53;1.90;;;8.10;99.90;;;;;;5045022;28;20100;-58
2022/02/16 10:00:20;;;;;;;2.50;1.58;;;8.20;99.90;;;;;;5031025;28;20468;-57
2022/02/16 10:02:46;;;;;;;1.83;1.45;;;8.30;99.90;;;;;;5047809;28;20033;-52
2022/02/16 10:05:15;;;;;;;2.45;1.80;;;8.20;99.90;;;;;;5048053;28;20151;-56
2022/02/16 10:07:42;;;;;;;2.67;1.67;;;8.30;99.90;;;;;;5044152;28;20028;-58
2022/02/16 10:10:15;;;;;;;2.67;1.55;;;8.30;99.90;;;;;;5049043;28;20503;-56
2022/02/16 10:12:47;;;;;;;3.15;2.20;;;8.30;99.90;;;;;;5047694;28;20025;-55
2022/02/16 10:15:20;;;;;;;2.40;1.83;;;8.40;99.90;;;;;;5048208;28;20079;-59
2022/02/16 10:17:46;;;;;;;3.40;2.85;;;8.40;99.90;;;;;;5047585;28;20040;-59
2022/02/16 10:20:16;;;;;;;2.97;1.80;;;8.50;99.90;;;;;;5048660;28;20391;-53
2022/02/16 10:22:48;;;;;;;4.15;1.90;;;8.50;99.90;;;;;;5044894;28;20494;-59
2022/02/16 10:25:24;;;;;;;3.10;2.30;;;8.60;99.90;;;;;;5041460;28;20060;-60
2022/02/16 10:28:13;;;;;;;4.15;2.17;;;8.60;99.90;;;;;;5047942;28;20033;-55
2022/02/16 10:30:58;;;;;;;4.32;2.78;;;8.60;99.90;;;;;;5048514;28;20426;-55
2022/02/16 10:33:27;;;;;;;3.58;2.50;;;8.60;99.90;;;;;;5041215;28;20041;-56
2022/02/16 10:36:07;;;;;;;3.20;2.30;;;8.70;99.90;;;;;;5051996;28;20025;-58
2022/02/16 10:38:57;;;;;;;5.10;3.05;;;8.70;99.90;;;;;;5051094;28;20032;-57
2022/02/16 10:41:25;;;;;;;5.60;3.83;;;8.70;99.90;;;;;;5021432;28;20034;-51
2022/02/16 10:43:51;;;;;;;4.20;2.88;;;8.70;99.90;;;;;;5050228;28;20108;-56
2022/02/16 10:46:28;;;;;;;4.95;3.60;;;8.70;99.90;;;;;;5051773;28;20454;-60
2022/02/16 10:49:15;;;;;;;4.75;2.92;;;8.70;99.90;;;;;;5051137;28;20079;-54
2022/02/16 10:51:43;;;;;;;4.55;3.35;;;8.80;99.90;;;;;;5050623;28;20441;-52
2022/02/16 10:54:13;;;;;;;4.15;3.20;;;8.80;99.90;;;;;;5051752;28;20082;-53
2022/02/16 10:56:42;;;;;;;3.83;3.00;;;8.80;99.90;;;;;;5050234;28;20036;-51
2022/02/16 10:59:08;;;;;;;4.22;3.58;;;8.80;99.90;;;;;;5052015;28;20124;-54
2022/02/16 11:01:35;;;;;;;3.67;3.22;;;8.90;99.90;;;;;;5051079;28;20448;-54
2022/02/16 11:04:04;;;;;;;5.10;3.50;;;8.90;99.90;;;;;;5051755;28;20116;-55
2022/02/16 11:06:35;;;;;;;5.63;2.95;;;8.90;99.90;;;;;;5050125;28;20028;-52
2022/02/16 11:09:01;;;;;;;5.18;3.10;;;9.00;99.90;;;;;;5042143;28;20029;-55
2022/02/16 11:11:30;;;;;;;4.53;3.55;;;9.00;99.90;;;;;;5051064;28;20017;-55
2022/02/16 11:14:03;;;;;;;4.07;3.15;;;9.00;99.90;;;;;;5051510;28;20070;-56
2022/02/16 11:16:29;;;;;;;4.05;3.20;;;9.00;99.90;;;;;;5043148;28;20025;-54
2022/02/16 11:18:59;;;;;;;4.50;3.20;;;9.10;99.90;;;;;;5050652;28;20673;-57
2022/02/16 11:21:26;;;;;;;4.47;3.45;;;9.10;99.90;;;;;;5049882;28;20036;-57
2022/02/16 11:23:54;;;;;;;4.60;3.65;;;9.20;99.90;;;;;;5043244;28;20067;-58
2022/02/16 11:26:41;;;;;;;4.50;4.05;;;9.20;99.90;;;;;;5049692;28;20111;-55
2022/02/16 11:29:27;;;;;;;3.78;3.30;;;9.20;99.90;;;;;;5043559;28;20037;-55
2022/02/16 11:32:13;;;;;;;4.45;3.17;;;9.30;99.90;;;;;;5034118;28;20033;-55
2022/02/16 11:34:40;;;;;;;3.85;3.17;;;9.30;99.90;;;;;;5050793;28;20071;-59
2022/02/16 11:37:06;;;;;;;3.13;2.60;;;9.30;99.90;;;;;;5049399;28;20048;-56
2022/02/16 11:39:43;;;;;;;3.47;2.50;;;9.40;99.90;;;;;;5050368;28;20037;-57
2022/02/16 11:42:21;;;;;;;4.30;2.67;;;9.40;99.90;;;;;;5031887;28;20068;-59
2022/02/16 11:44:50;;;;;;;4.65;3.17;;;9.40;99.90;;;;;;5050365;28;20128;-59
2022/02/16 11:47:34;;;;;;;3.67;2.88;;;9.40;99.90;;;;;;5040935;28;20083;-60
2022/02/16 11:50:00;;;;;;;3.97;3.05;;;9.50;99.90;;;;;;5049837;28;20025;-52
2022/02/16 11:52:38;;;;;;;3.80;3.47;;;9.50;99.90;;;;;;5049503;28;20017;-58
2022/02/16 11:55:23;;;;;;;3.88;3.20;;;9.60;99.90;;;;;;5033720;28;20131;-57
2022/02/16 11:57:50;;;;;;;4.38;3.33;;;9.60;99.90;;;;;;5050516;28;20116;-58
2022/02/16 12:00:18;;;;;;;5.10;3.30;;;9.70;99.90;;;;;;5051080;28;20021;-59
2022/02/16 12:03:02;;;;;;;4.50;3.75;;;9.60;99.90;;;;;;5050883;28;20561;-53
2022/02/16 12:05:49;;;;;;;3.42;3.10;;;9.60;99.90;;;;;;5050462;28;20036;-57
2022/02/16 12:08:42;;;;;;;4.20;3.30;;;9.70;99.90;;;;;;5051009;28;20025;-59
2022/02/16 12:11:15;;;;;;;;;;;9.70;99.90;;;;;;5050925;28;20405;-59
2022/02/16 12:14:04;;;;;;;3.50;3.15;;;9.80;99.90;;;;;;5040881;28;20194;-57
2022/02/16 12:16:42;;;;;;;3.55;3.05;;;9.80;99.90;;;;;;5048586;28;20429;-58
2022/02/16 12:19:10;;;;;;;4.13;3.10;;;9.80;99.90;;;;;;5050626;28;20115;-59
2022/02/16 12:21:46;;;;;;;4.70;3.50;;;9.90;99.90;;;;;;5051098;28;20086;-59
2022/02/16 12:24:17;;;;;;;4.45;2.90;;;9.80;99.90;;;;;;5051018;28;20032;-57
2022/02/16 12:26:45;;;;;;;3.53;2.90;;;9.80;99.90;;;;;;5049832;28;20374;-60
2022/02/16 12:29:17;;;;;;;3.05;2.58;;;9.90;99.90;;;;;;5032230;28;20505;-60
2022/02/16 12:31:46;;;;;;;5.50;3.72;;;9.90;99.90;;;;;;5030443;28;20033;-54
2022/02/16 12:34:32;;;;;;;28.10;8.95;;;10.00;99.90;;;;;;5028662;28;20040;-53
2022/02/16 12:37:06;;;;;;;16.88;6.68;;;10.10;99.90;;;;;;5029611;28;20456;-51
2022/02/16 12:39:33;;;;;;;4.63;2.85;;;10.10;99.90;;;;;;5028239;28;20096;-60
2022/02/16 12:42:09;;;;;;;4.38;2.50;;;10.10;99.90;;;;;;5032846;28;20078;-59
2022/02/16 12:44:36;;;;;;;3.65;2.58;;;10.10;99.90;;;;;;5039370;28;20413;-57
2022/02/16 12:47:03;;;;;;;2.97;2.58;;;10.20;99.90;;;;;;5027027;28;20024;-59
2022/02/16 12:49:30;;;;;;;3.50;2.50;;;10.20;99.90;;;;;;5029775;28;20040;-59